Flight Track Log - Related Links

Times and Time Zones

All times are in EDT time to prevent confusion due to time zone crossing. See the DAL10 flight status page for this flight to view local times or setup timezone preferences in your user account.


Time Position Orientation Groundspeed Altitude Reporting Facility
EDT Latitude Longitude Course Direction KTS MPH feet Rate Location/Type
Thu 11:10:00 PM 33.8671 -84.2004 320° Northwest  Level FlightAware Approximate
Thu 11:11:00 PM 33.9833 -84.2667 North  Level FlightAware Approximate
Thu 11:11:18 PM 33.7610 -84.1790 North 320 368 9,800  Level FlightAware ADS-B
Thu 11:11:33 PM 33.7800 -84.1790 360° North 320 368 9,900 300 Climbing FlightAware ADS-B
Thu 11:11:58 PM 33.8260 -84.1800 359° North 371 427 10,000  Climbing FlightAware ADS-B
Thu 11:12:13 PM 33.8530 -84.1870 348° North 382 440 9,900 -200 Descending FlightAware ADS-B
Thu 11:12:28 PM 33.8750 -84.2020 330° Northwest 372 428 9,900 1,200 Level FlightAware ADS-B
Thu 11:13:08 PM 33.9250 -84.2540 319° Northwest 388 447 11,000 1,745 Climbing FlightAware ADS-B
Thu 11:13:23 PM 33.9530 -84.2710 333° Northwest 406 467 11,500 2,200 Climbing FlightAware ADS-B
Thu 11:13:38 PM 33.9810 -84.2760 352° North 405 466 12,100 3,000 Climbing FlightAware ADS-B
Thu 11:13:53 PM 34.0110 -84.2760 360° North 402 463 13,000 2,618 Climbing FlightAware ADS-B
Thu 11:14:33 PM 34.0820 -84.2740 North 406 467 14,500 1,800 Climbing FlightAware ADS-B
Thu 11:15:03 PM 34.1470 -84.2750 359° North 438 504 15,100 1,800 Climbing FlightAware ADS-B
Thu 11:15:43 PM 34.2310 -84.2780 358° North 438 504 16,600 2,229 Climbing FlightAware ADS-B
Thu 11:16:13 PM 34.2900 -84.2760 North 453 521 17,700 2,486 Climbing FlightAware ADS-B
Thu 11:16:53 PM 34.3856 -84.2568 North 461 531 19,500 2,333 Climbing FlightAware ADS-B
Thu 11:17:25 PM 34.4525 -84.2405 11° North 467 537 20,500 2,476 Climbing FlightAware ADS-B
Thu 11:17:56 PM 34.5168 -84.2244 12° North 448 516 22,100 2,250 Climbing FlightAware ADS-B
Thu 11:18:29 PM 34.5823 -84.2084 11° North 430 495 22,900 831 Climbing FlightAware ADS-B
Thu 11:19:01 PM 34.6451 -84.1934 11° North 433 498 23,000 190 Climbing FlightAware ADS-B
Thu 11:19:32 PM 34.7053 -84.1790 11° North 437 503 23,100 706 Climbing FlightAware ADS-B
Thu 11:20:09 PM 34.7802 -84.1612 11° North 437 503 23,800 1,343 Climbing FlightAware ADS-B
Thu 11:20:39 PM 34.8408 -84.1464 11° North 442 509 24,600 1,180 Climbing FlightAware ADS-B
Thu 11:21:10 PM 34.9028 -84.1313 11° North 442 509 25,000 387 Climbing FlightAware ADS-B
Thu 11:21:41 PM 34.9632 -84.1168 11° North 437 503 25,000  Level FlightAware ADS-B
Thu 11:22:15 PM 35.0317 -84.1002 11° North 440 506 25,000 188 Level FlightAware ADS-B
Thu 11:22:45 PM 35.0924 -84.0855 11° North 443 510 25,200 1,000 Climbing FlightAware ADS-B
Thu 11:23:15 PM 35.1532 -84.0709 11° North 444 511 26,000 1,437 Climbing FlightAware ADS-B
Thu 11:23:56 PM 35.2346 -84.0510 11° North 449 517 26,900 1,183 Climbing FlightAware ADS-B
Thu 11:24:26 PM 35.2973 -84.0358 11° North 460 529 27,400 1,343 Climbing FlightAware ADS-B
Thu 11:25:03 PM 35.3754 -84.0168 11° North 460 529 28,400 1,412 Climbing FlightAware ADS-B
Thu 11:25:34 PM 35.4391 -84.0011 11° North 462 532 29,000 590 Climbing FlightAware ADS-B
Thu 11:26:04 PM 35.5031 -83.9853 11° North 461 531 29,000  Level FlightAware ADS-B
Thu 11:26:34 PM 35.5661 -83.9698 11° North 464 534 29,000  Level FlightAware ADS-B
Thu 11:27:06 PM 35.6329 -83.9535 11° North 472 543 29,000  Level FlightAware ADS-B
Thu 11:27:36 PM 35.6986 -83.9375 11° North 470 541 29,000  Level FlightAware ADS-B
Thu 11:28:07 PM 35.7632 -83.9215 11° North 472 543 29,000  Level FlightAware ADS-B
Thu 11:28:38 PM 35.8320 -83.9046 11° North 475 547 29,000  Level FlightAware ADS-B
Thu 11:29:00 PM 35.8781 -83.8922 12° North 479 551 29,000  Level FlightAware ADS-B
Thu 11:29:14 PM 35.9070 -83.8810 17° North 486 559 29,000  Level FlightAware ADS-B
Thu 11:29:26 PM 35.9338 -83.8673 22° Northeast 491 565 29,000  Level FlightAware ADS-B
Thu 11:29:56 PM 35.9959 -83.8299 26° Northeast 495 570 29,000  Level FlightAware ADS-B
Thu 11:30:27 PM 36.0578 -83.7909 27° Northeast 497 572 29,000  Level FlightAware ADS-B
Thu 11:30:57 PM 36.1195 -83.7511 28° Northeast 496 571 29,000  Level FlightAware ADS-B
Thu 11:31:29 PM 36.1840 -83.7097 27° Northeast 492 566 29,000 -290 Level FlightAware ADS-B
Thu 11:31:59 PM 36.2450 -83.6708 27° Northeast 482 555 28,700 -600 Descending FlightAware ADS-B
Thu 11:32:29 PM 36.3040 -83.6330 27° Northeast 475 547 28,400 -492 Descending FlightAware ADS-B
Thu 11:33:00 PM 36.3643 -83.5947 27° Northeast 471 542 28,200 -484 Descending FlightAware ADS-B
Thu 11:33:31 PM 36.4233 -83.5569 27° Northeast 474 545 27,900 -492 Descending FlightAware ADS-B
Thu 11:34:01 PM 36.4829 -83.5189 27° Northeast 475 547 27,700 -492 Descending FlightAware ADS-B
Thu 11:34:32 PM 36.5423 -83.4805 27° Northeast 475 547 27,400 -590 Descending FlightAware ADS-B
Thu 11:35:02 PM 36.6017 -83.4421 27° Northeast 473 544 27,100 -400 Descending FlightAware ADS-B
Thu 11:35:32 PM 36.6576 -83.3977 33° Northeast 484 557 27,000 -97 Descending FlightAware ADS-B
Thu 11:36:04 PM 36.7148 -83.3454 36° Northeast 490 564 27,000  Level FlightAware ADS-B
Thu 11:36:34 PM 36.7704 -83.2927 37° Northeast 496 571 27,000  Level FlightAware ADS-B
Thu 11:37:05 PM 36.8265 -83.2391 37° Northeast 513 590 27,000  Level FlightAware ADS-B
Thu 11:37:35 PM 36.8840 -83.1842 37° Northeast 520 598 27,000  Level FlightAware ADS-B
Thu 11:38:08 PM 36.9443 -83.1201 40° Northeast 523 602 27,000  Level FlightAware ADS-B
Thu 11:38:38 PM 36.9963 -83.0532 46° Northeast 524 603 27,000  Level FlightAware ADS-B
Thu 11:39:30 PM 37.0800 -82.9361 48° Northeast 523 602 27,000  Level FlightAware ADS-B
Thu 11:40:01 PM 37.1295 -82.8667 48° Northeast 524 603 27,000  Level FlightAware ADS-B
Thu 11:40:50 PM 37.2072 -82.7564 48° Northeast 523 602 27,000  Level FlightAware ADS-B
Thu 11:41:20 PM 37.2563 -82.6866 49° Northeast 524 603 27,000  Level FlightAware ADS-B
Thu 11:41:51 PM 37.3058 -82.6161 49° Northeast 524 603 27,000  Level FlightAware ADS-B
Thu 11:42:22 PM 37.3551 -82.5455 49° Northeast 524 603 27,000  Level FlightAware ADS-B
Thu 11:42:53 PM 37.4048 -82.4744 49° Northeast 524 603 27,000  Level FlightAware ADS-B
Thu 11:43:23 PM 37.4529 -82.4052 49° Northeast 524 603 27,000  Level FlightAware ADS-B
Thu 11:43:54 PM 37.5023 -82.3343 49° Northeast 524 603 27,000  Level FlightAware ADS-B
Thu 11:44:25 PM 37.5506 -82.2647 49° Northeast 525 604 27,000  Level FlightAware ADS-B
Thu 11:45:20 PM 37.6381 -82.1383 49° Northeast 523 602 27,000  Level FlightAware ADS-B
Thu 11:46:33 PM 37.7510 -81.9750 49° Northeast 523 602 27,000  Level FlightAware ADS-B
Thu 11:47:13 PM 37.8160 -81.8800 49° Northeast 523 602 27,000  Level FlightAware ADS-B
Thu 11:47:53 PM 37.8800 -81.7870 49° Northeast 521 600 27,000  Level FlightAware ADS-B
Thu 11:48:38 PM 37.9480 -81.6870 49° Northeast 521 600 27,000  Level FlightAware ADS-B
Thu 11:49:18 PM 38.0110 -81.5940 49° Northeast 519 597 27,000  Level FlightAware ADS-B
Thu 11:50:03 PM 38.0830 -81.4890 49° Northeast 516 594 27,000  Level FlightAware ADS-B
Thu 11:50:43 PM 38.1460 -81.3960 49° Northeast 516 594 27,000  Level FlightAware ADS-B
Thu 11:51:28 PM 38.2140 -81.2970 49° Northeast 514 592 27,000  Level FlightAware ADS-B
Thu 11:52:08 PM 38.2770 -81.2040 49° Northeast 512 589 27,000  Level FlightAware ADS-B
Thu 11:52:48 PM 38.3370 -81.1140 50° Northeast 507 583 27,000  Level FlightAware ADS-B
Thu 11:53:28 PM 38.4000 -81.0210 49° Northeast 505 581 27,000  Level FlightAware ADS-B
Thu 11:54:13 PM 38.4690 -80.9190 49° Northeast 504 580 27,000  Level FlightAware ADS-B
Thu 11:54:53 PM 38.5270 -80.8320 50° Northeast 503 579 27,000  Level FlightAware ADS-B
Thu 11:55:38 PM 38.5960 -80.7280 50° Northeast 503 579 27,000  Level FlightAware ADS-B
Thu 11:56:18 PM 38.6560 -80.6390 49° Northeast 502 578 27,000  Level FlightAware ADS-B
Thu 11:57:03 PM 38.7250 -80.5350 50° Northeast 500 575 27,000  Level FlightAware ADS-B
Thu 11:57:43 PM 38.7850 -80.4440 50° Northeast 500 575 27,000  Level FlightAware ADS-B
Thu 11:58:23 PM 38.8450 -80.3540 49° Northeast 500 575 27,000  Level FlightAware ADS-B
Thu 11:59:08 PM 38.9100 -80.2550 50° Northeast 502 578 27,000  Level FlightAware ADS-B
Thu 11:59:48 PM 38.9700 -80.1640 50° Northeast 503 579 27,000  Level FlightAware ADS-B
Fri 12:00:33 AM 39.0360 -80.0630 50° Northeast 505 581 27,000  Level FlightAware ADS-B
Fri 12:01:13 AM 39.0970 -79.9700 50° Northeast 506 582 27,000  Level FlightAware ADS-B
Fri 12:01:58 AM 39.1630 -79.8680 50° Northeast 507 583 27,000  Level FlightAware ADS-B
Fri 12:02:38 AM 39.2250 -79.7740 50° Northeast 507 583 27,000  Level FlightAware ADS-B
Fri 12:03:23 AM 39.2890 -79.6740 50° Northeast 509 586 27,000  Level FlightAware ADS-B
Fri 12:04:03 AM 39.3510 -79.5780 50° Northeast 507 583 27,000  Level FlightAware ADS-B
Fri 12:04:48 AM 39.4200 -79.4710 50° Northeast 506 582 27,000  Level FlightAware ADS-B
Fri 12:05:28 AM 39.4750 -79.3850 50° Northeast 506 582 27,000  Level FlightAware ADS-B
Fri 12:06:08 AM 39.5360 -79.2890 50° Northeast 507 583 27,000  Level FlightAware ADS-B
Fri 12:06:53 AM 39.6070 -79.1790 50° Northeast 505 581 27,000  Level FlightAware ADS-B
Fri 12:07:33 AM 39.6660 -79.0850 51° Northeast 504 580 27,000  Level FlightAware ADS-B
Fri 12:08:18 AM 39.7320 -78.9820 50° Northeast 503 579 27,000  Level FlightAware ADS-B
Fri 12:08:58 AM 39.7910 -78.8880 51° Northeast 501 577 27,000  Level FlightAware ADS-B
Fri 12:09:38 AM 39.8500 -78.7940 51° Northeast 500 575 27,000  Level FlightAware ADS-B
Fri 12:10:23 AM 39.9150 -78.6910 51° Northeast 499 574 27,000  Level FlightAware ADS-B
Fri 12:11:03 AM 39.9730 -78.5980 51° Northeast 499 574 27,000  Level FlightAware ADS-B
Fri 12:11:48 AM 40.0400 -78.4900 51° Northeast 499 574 27,000  Level FlightAware ADS-B
Fri 12:12:23 AM 40.0900 -78.4100 51° Northeast 499 574 27,000  Level FlightAware ADS-B
Fri 12:13:08 AM 40.1560 -78.3030 51° Northeast 498 573 27,000  Level FlightAware ADS-B
Fri 12:14:08 AM 40.2420 -78.1640 51° Northeast 498 573 27,000 240 Level FlightAware ADS-B
Fri 12:14:48 AM 40.3010 -78.0680 51° Northeast 495 570 27,400 600 Climbing FlightAware ADS-B
Fri 12:15:28 AM 40.3550 -77.9790 51° Northeast 495 570 27,800 706 Climbing FlightAware ADS-B
Fri 12:16:13 AM 40.4220 -77.8700 51° Northeast 493 567 28,400 776 Climbing FlightAware ADS-B
Fri 12:16:53 AM 40.4790 -77.7760 51° Northeast 490 564 28,900 857 Climbing FlightAware ADS-B
Fri 12:17:16 AM 40.5158 -77.7158 51° Northeast 492 566 29,300 1,111 Climbing FlightAware ADS-B
Fri 12:17:47 AM 40.5593 -77.6439 51° Northeast 494 568 29,900 1,082 Climbing FlightAware ADS-B
Fri 12:18:17 AM 40.6020 -77.5732 51° Northeast 496 571 30,400 952 Climbing FlightAware ADS-B
Fri 12:18:50 AM 40.6480 -77.4967 52° Northeast 494 568 30,900 975 Climbing FlightAware ADS-B
Fri 12:19:37 AM 40.7149 -77.3850 52° Northeast 491 565 31,700 1,000 Climbing FlightAware ADS-B
Fri 12:20:08 AM 40.7579 -77.3135 52° Northeast 492 566 32,200 968 Climbing FlightAware ADS-B
Fri 12:20:39 AM 40.8023 -77.2388 52° Northeast 489 563 32,700 750 Climbing FlightAware ADS-B
Fri 12:21:12 AM 40.8473 -77.1631 52° Northeast 487 560 33,000 286 Climbing FlightAware ADS-B
Fri 12:21:42 AM 40.8896 -77.0920 52° Northeast 483 556 33,000  Level FlightAware ADS-B
Fri 12:22:13 AM 40.9311 -77.0221 52° Northeast 482 555 33,000  Level FlightAware ADS-B
Fri 12:22:43 AM 40.9730 -76.9513 52° Northeast 484 557 33,000  Level FlightAware ADS-B
Fri 12:23:13 AM 41.0143 -76.8812 52° Northeast 487 560 33,000  Level FlightAware ADS-B
Fri 12:23:46 AM 41.0596 -76.8043 52° Northeast 489 563 33,000  Level FlightAware ADS-B
Fri 12:24:16 AM 41.1014 -76.7331 52° Northeast 490 564 33,000  Level FlightAware ADS-B
Fri 12:24:46 AM 41.1431 -76.6616 52° Northeast 490 564 33,000  Level FlightAware ADS-B
Fri 12:25:16 AM 41.1848 -76.5902 52° Northeast 490 564 33,000  Level FlightAware ADS-B
Fri 12:25:46 AM 41.2270 -76.5176 52° Northeast 489 563 33,000  Level FlightAware ADS-B
Fri 12:26:17 AM 41.2695 -76.4446 52° Northeast 489 563 33,000  Level FlightAware ADS-B
Fri 12:26:50 AM 41.3137 -76.3683 52° Northeast 487 560 33,000  Level FlightAware ADS-B
Fri 12:27:20 AM 41.3552 -76.2962 53° Northeast 487 560 33,000  Level FlightAware ADS-B
Fri 12:27:50 AM 41.3964 -76.2251 52° Northeast 485 558 33,000  Level FlightAware ADS-B
Fri 12:28:20 AM 41.4371 -76.1542 53° Northeast 485 558 33,000  Level FlightAware ADS-B
Fri 12:28:51 AM 41.4788 -76.0816 53° Northeast 483 556 33,000  Level FlightAware ADS-B
Fri 12:29:21 AM 41.5197 -76.0105 52° Northeast 481 554 33,000  Level FlightAware ADS-B
Fri 12:29:45 AM 41.5526 -75.9521 53° Northeast 481 554 33,000  Level FlightAware ADS-B
Fri 12:30:16 AM 41.5937 -75.8808 52° Northeast 479 551 33,000  Level FlightAware ADS-B
Fri 12:30:46 AM 41.6340 -75.8098 53° Northeast 478 550 33,000  Level FlightAware ADS-B
Fri 12:31:16 AM 41.6740 -75.7390 53° Northeast 478 550 33,000  Level FlightAware ADS-B
Fri 12:31:47 AM 41.7150 -75.6669 53° Northeast 477 549 33,000  Level FlightAware ADS-B
Fri 12:32:17 AM 41.7550 -75.5960 53° Northeast 476 548 33,000  Level FlightAware ADS-B
Fri 12:32:48 AM 41.7959 -75.5234 53° Northeast 477 549 33,000  Level FlightAware ADS-B
Fri 12:33:18 AM 41.8360 -75.4519 53° Northeast 477 549 33,000  Level FlightAware ADS-B
Fri 12:33:50 AM 41.8781 -75.3769 53° Northeast 478 550 33,000  Level FlightAware ADS-B
Fri 12:34:22 AM 41.9200 -75.3018 53° Northeast 479 551 33,000  Level FlightAware ADS-B
Fri 12:34:52 AM 41.9607 -75.2291 53° Northeast 480 552 33,000  Level FlightAware ADS-B
Fri 12:35:25 AM 42.0046 -75.1501 53° Northeast 481 554 33,000  Level FlightAware ADS-B
Fri 12:35:57 AM 42.0473 -75.0733 53° Northeast 482 555 33,000  Level FlightAware ADS-B
Fri 12:36:31 AM 42.0924 -74.9916 53° Northeast 482 555 33,000  Level FlightAware ADS-B
Fri 12:37:04 AM 42.1358 -74.9131 53° Northeast 482 555 33,000  Level FlightAware ADS-B
Fri 12:37:38 AM 42.1740 -74.8460 52° Northeast 481 554 33,000  Level FlightAware ADS-B
Fri 12:37:45 AM 42.1902 -74.8144 55° Northeast 485 558 33,000  Level FlightAware ADS-B
Fri 12:38:16 AM 42.2309 -74.7399 54° Northeast 485 558 33,000  Level FlightAware ADS-B
Fri 12:39:18 AM 42.3100 -74.5950 54° Northeast 486 559 33,000  Level FlightAware ADS-B
Fri 12:40:12 AM 42.3859 -74.4557 54° Northeast 486 559 33,000  Level FlightAware ADS-B
Fri 12:40:55 AM 42.4427 -74.3511 54° Northeast 490 564 33,000  Level FlightAware ADS-B
Fri 12:41:33 AM 42.4800 -74.2840 53° Northeast 487 560 33,000  Level FlightAware ADS-B
Fri 12:42:18 AM 42.5520 -74.1490 54° Northeast 490 564 33,000  Level FlightAware ADS-B
Fri 12:43:03 AM 42.6100 -74.0390 54° Northeast 493 567 33,000  Level FlightAware ADS-B
Fri 12:43:43 AM 42.6640 -73.9390 54° Northeast 494 568 33,000  Level FlightAware ADS-B
Fri 12:44:23 AM 42.7180 -73.8370 54° Northeast 497 572 33,000  Level FlightAware ADS-B
Fri 12:45:08 AM 42.7790 -73.7190 55° Northeast 499 574 33,000  Level FlightAware ADS-B
Fri 12:45:48 AM 42.8260 -73.6140 59° Northeast 498 573 33,000  Level FlightAware ADS-B
Fri 12:46:33 AM 42.8800 -73.4970 58° Northeast 499 574 33,000  Level FlightAware ADS-B
Fri 12:47:13 AM 42.9290 -73.3910 58° Northeast 501 577 33,000  Level FlightAware ADS-B
Fri 12:48:08 AM 42.9900 -73.2620 57° Northeast 502 578 33,000  Level FlightAware ADS-B
Fri 12:48:53 AM 43.0450 -73.1430 58° Northeast 503 579 33,000  Level FlightAware ADS-B
Fri 12:50:18 AM 43.1480 -72.9200 58° Northeast 502 578 33,000  Level FlightAware ADS-B
Fri 12:50:58 AM 43.2010 -72.8060 57° Northeast 502 578 33,000  Level FlightAware ADS-B
Fri 12:51:38 AM 43.2520 -72.6930 58° Northeast 503 579 33,000  Level FlightAware ADS-B
Fri 12:52:13 AM 43.3010 -72.5830 59° Northeast 502 578 33,000  Level FlightAware ADS-B
Fri 12:52:58 AM 43.3580 -72.4590 58° Northeast 502 578 33,000  Level FlightAware ADS-B
Fri 12:53:38 AM 43.4070 -72.3500 58° Northeast 502 578 33,000  Level FlightAware ADS-B
Fri 12:54:18 AM 43.4540 -72.2440 59° Northeast 498 573 33,000  Level FlightAware ADS-B
Fri 12:55:03 AM 43.5080 -72.1240 58° Northeast 499 574 33,000  Level FlightAware ADS-B
Fri 12:55:43 AM 43.5560 -72.0170 58° Northeast 498 573 33,000  Level FlightAware ADS-B
Fri 12:56:28 AM 43.6120 -71.8910 58° Northeast 499 574 33,000  Level FlightAware ADS-B
Fri 12:57:08 AM 43.6600 -71.7830 58° Northeast 499 574 33,000  Level FlightAware ADS-B
Fri 12:57:53 AM 43.7130 -71.6610 59° Northeast 499 574 33,000  Level FlightAware ADS-B
Fri 12:58:33 AM 43.7610 -71.5520 59° Northeast 500 575 33,000  Level FlightAware ADS-B
Fri 12:59:13 AM 43.8090 -71.4420 59° Northeast 504 580 33,000  Level FlightAware ADS-B
Fri 12:59:53 AM 43.8570 -71.3310 59° Northeast 504 580 33,000  Level FlightAware ADS-B
Fri 01:00:38 AM 43.9110 -71.2070 59° Northeast 506 582 33,000  Level FlightAware ADS-B
Fri 01:01:18 AM 43.9590 -71.0970 59° Northeast 506 582 33,000  Level FlightAware ADS-B
Fri 01:02:03 AM 44.0140 -70.9690 59° Northeast 508 585 33,000  Level FlightAware ADS-B
Fri 01:02:43 AM 44.0620 -70.8570 59° Northeast 512 589 33,000  Level FlightAware ADS-B
Fri 01:03:28 AM 44.1150 -70.7320 59° Northeast 511 588 33,000  Level FlightAware ADS-B
Fri 01:04:08 AM 44.1640 -70.6180 59° Northeast 514 592 33,000  Level FlightAware ADS-B
Fri 01:04:53 AM 44.2190 -70.4870 60° Northeast 514 592 33,000  Level FlightAware ADS-B
Fri 01:05:33 AM 44.2670 -70.3730 60° Northeast 513 590 33,000  Level FlightAware ADS-B
Fri 01:06:13 AM 44.3150 -70.2580 60° Northeast 513 590 33,000  Level FlightAware ADS-B
Fri 01:06:58 AM 44.3660 -70.1380 59° Northeast 511 588 33,000  Level FlightAware ADS-B
Fri 01:07:38 AM 44.4140 -70.0220 60° Northeast 511 588 33,000  Level FlightAware ADS-B
Fri 01:08:18 AM 44.4590 -69.9170 59° Northeast 513 590 33,000  Level FlightAware ADS-B
Fri 01:09:18 AM 44.5270 -69.7490 60° Northeast 512 589 33,000  Level FlightAware ADS-B
Fri 01:09:58 AM 44.5820 -69.6140 60° Northeast 515 593 33,000  Level FlightAware ADS-B
Fri 01:10:43 AM 44.6340 -69.4870 60° Northeast 514 592 33,000  Level FlightAware ADS-B
Fri 01:11:23 AM 44.6800 -69.3750 60° Northeast 515 593 33,000  Level FlightAware ADS-B
Fri 01:12:03 AM 44.7290 -69.2560 60° Northeast 514 592 33,000  Level FlightAware ADS-B
Fri 01:12:48 AM 44.7830 -69.1210 61° Northeast 516 594 33,000  Level FlightAware ADS-B
Fri 01:13:28 AM 44.8290 -69.0060 61° Northeast 516 594 33,000  Level FlightAware ADS-B
Fri 01:14:08 AM 44.8760 -68.8900 60° Northeast 516 594 33,000  Level FlightAware ADS-B
Fri 01:14:53 AM 44.9280 -68.7600 60° Northeast 515 593 33,000  Level FlightAware ADS-B
Fri 01:15:33 AM 44.9740 -68.6430 61° Northeast 517 595 33,000 -282 Level FlightAware ADS-B
Fri 01:16:18 AM 45.0290 -68.5050 61° Northeast 525 604 32,600 -706 Descending FlightAware ADS-B
Fri 01:16:58 AM 45.0760 -68.3850 61° Northeast 526 605 32,000 -975 Descending FlightAware ADS-B
Fri 01:17:38 AM 45.1120 -68.2600 68° East 520 598 31,300 -988 Descending FlightAware ADS-B
Fri 01:18:23 AM 45.1100 -68.1170 91° East 514 592 30,600 -988 Descending FlightAware ADS-B
Fri 01:19:03 AM 45.0720 -67.9960 114° Southeast 508 585 29,900 -1,271 Descending FlightAware ADS-B
Fri 01:19:48 AM 44.9890 -67.8950 139° Southeast 491 565 28,800 -1,694 Descending FlightAware ADS-B
Fri 01:20:28 AM 44.9090 -67.8630 164° South 461 531 27,500 -2,143 Descending FlightAware ADS-B
Fri 01:20:58 AM 44.8440 -67.8720 186° South 437 503 26,300 -1,971 Descending FlightAware ADS-B
Fri 01:21:38 AM 44.7750 -67.9240 208° Southwest 407 468 25,200 -1,275 Descending FlightAware ADS-B
Fri 01:22:18 AM 44.7160 -67.9810 214° Southwest 411 473 24,600 -918 Descending FlightAware ADS-B
Fri 01:23:03 AM 44.6460 -68.0510 215° Southwest 411 473 23,900 -988 Descending FlightAware ADS-B
Fri 01:23:43 AM 44.5840 -68.1140 216° Southwest 404 465 23,200 -1,059 Descending FlightAware ADS-B
Fri 01:24:28 AM 44.5170 -68.1820 216° Southwest 400 460 22,400 -988 Descending FlightAware ADS-B
Fri 01:25:08 AM 44.4590 -68.2400 216° Southwest 392 451 21,800 -1,412 Descending FlightAware ADS-B
Fri 01:25:53 AM 44.3930 -68.3100 217° Southwest 390 449 20,400 -1,976 Descending FlightAware ADS-B
Fri 01:26:33 AM 44.3360 -68.3700 217° Southwest 383 441 19,000 -1,864 Descending FlightAware ADS-B
Fri 01:27:36 AM 44.2517 -68.4833 217° Southwest 391 450 17,200 -1,857 Descending Boston Center
Fri 01:28:39 AM 44.1753 -68.5694 219° Southwest 381 438 15,100 -1,934 Descending Boston Center
Fri 01:29:37 AM 44.1011 -68.6581 221° Southwest 370 426 13,300 -1,271 Descending Boston Center
Fri 01:30:37 AM 44.0333 -68.7519 225° Southwest 350 403 12,600 -655 Descending Boston Center
Fri 01:31:36 AM 43.9672 -68.8397 224° Southwest 345 397 12,000 -605 Descending Boston Center
Fri 01:32:36 AM 43.9036 -68.9331 227° Southwest 340 391 11,400 -500 Descending Boston Center
Fri 01:33:36 AM 43.8375 -69.0233 225° Southwest 340 391 11,000 -200 Descending Boston Center
Fri 01:34:36 AM 43.7733 -69.1103 224° Southwest 340 391 11,000 -31 Level Boston Center
Fri 01:40:03 AM 43.4130 -69.5740 224° Southwest 330 380 10,800 -33 Descending FlightAware ADS-B
Fri 01:40:43 AM 43.3690 -69.6330 224° Southwest 331 381 10,800  Level FlightAware ADS-B
Fri 01:41:28 AM 43.3260 -69.6900 224° Southwest 331 381 10,800  Level FlightAware ADS-B
Fri 01:42:03 AM 43.2810 -69.7510 225° Southwest 326 375 10,800  Level FlightAware ADS-B
Fri 01:42:48 AM 43.2360 -69.8110 224° Southwest 327 376 10,800  Level FlightAware ADS-B
Fri 01:43:33 AM 43.1880 -69.8760 225° Southwest 304 350 10,800  Level FlightAware ADS-B
Fri 01:44:13 AM 43.1450 -69.9330 224° Southwest 294 338 10,800  Level FlightAware ADS-B
Fri 01:44:58 AM 43.1000 -69.9920 224° Southwest 295 339 10,800  Level FlightAware ADS-B
Fri 01:45:38 AM 43.0590 -70.0460 224° Southwest 295 339 10,800  Level FlightAware ADS-B
Fri 01:46:23 AM 43.0140 -70.1060 224° Southwest 296 341 10,800  Level FlightAware ADS-B
Fri 01:47:03 AM 42.9750 -70.1570 224° Southwest 297 342 10,800  Level FlightAware ADS-B
Fri 01:47:48 AM 42.9280 -70.2190 224° Southwest 298 343 10,800  Level FlightAware ADS-B
Fri 01:48:28 AM 42.8880 -70.2720 224° Southwest 298 343 10,800  Level FlightAware ADS-B
Fri 01:49:08 AM 42.8470 -70.3250 223° Southwest 297 342 10,800  Level FlightAware ADS-B
Fri 01:49:53 AM 42.8060 -70.3850 227° Southwest 294 338 10,800  Level FlightAware ADS-B
Fri 01:50:08 AM 42.8010 -70.4050 251° West 282 325 10,800  Level FlightAware ADS-B
Fri 01:50:48 AM 42.7880 -70.4790 257° West 278 320 10,800  Level FlightAware ADS-B
Fri 01:51:28 AM 42.7760 -70.5490 257° West 279 321 10,800  Level FlightAware ADS-B
Fri 01:52:13 AM 42.7610 -70.6260 255° West 281 323 10,800  Level FlightAware ADS-B
Fri 01:52:53 AM 42.7490 -70.6940 257° West 281 323 10,800  Level FlightAware ADS-B
Fri 01:53:38 AM 42.7350 -70.7710 256° West 278 320 10,800 -212 Level FlightAware ADS-B
Fri 01:54:18 AM 42.7240 -70.8360 257° West 253 291 10,500 -494 Descending FlightAware ADS-B
Fri 01:55:03 AM 42.7120 -70.9040 257° West 252 290 10,100 -514 Descending FlightAware ADS-B
Fri 01:55:28 AM 42.7050 -70.9450 257° West 252 290 9,900 -436 Descending FlightAware ADS-B
Fri 01:55:58 AM 42.6970 -70.9910 257° West 253 291 9,700 -400 Descending FlightAware ADS-B
Fri 01:56:13 AM 42.6940 -71.0130 259° West 250 288 9,600 -600 Descending FlightAware ADS-B
Fri 01:56:38 AM 42.6870 -71.0510 256° West 245 282 9,300 -545 Descending FlightAware ADS-B
Fri 01:57:08 AM 42.6790 -71.0970 257° West 244 281 9,100 -436 Descending FlightAware ADS-B
Fri 01:57:33 AM 42.6730 -71.1350 258° West 243 280 8,900 -450 Descending FlightAware ADS-B
Fri 01:57:48 AM 42.6690 -71.1570 256° West 243 280 8,800 -533 Descending FlightAware ADS-B
Fri 01:58:18 AM 42.6560 -71.1970 246° West 241 277 8,500 -533 Descending FlightAware ADS-B
Fri 01:58:33 AM 42.6400 -71.2070 205° Southwest 246 283 8,400 -450 Descending FlightAware ADS-B
Fri 01:58:58 AM 42.6100 -71.1980 168° South 277 319 8,200 -450 Descending FlightAware ADS-B
Fri 01:59:13 AM 42.5910 -71.1850 153° Southeast 278 320 8,100 -533 Descending FlightAware ADS-B
Fri 01:59:43 AM 42.5560 -71.1630 155° Southeast 273 314 7,800 -450 Descending FlightAware ADS-B
Fri 01:59:53 AM 42.5440 -71.1560 157° South 271 312 7,800  Level FlightAware ADS-B
Fri 02:00:23 AM 42.5110 -71.1330 153° Southeast 285 328 7,800  Level FlightAware ADS-B
Fri 02:00:38 AM 42.4990 -71.1120 128° Southeast 303 349 7,800  Level FlightAware ADS-B
Fri 02:00:53 AM 42.4940 -71.0810 102° East 319 367 7,800  Level FlightAware ADS-B
Fri 02:01:03 AM 42.4950 -71.0620 86° East 324 373 7,800  Level FlightAware ADS-B
Fri 02:01:33 AM 42.5030 -71.0020 80° East 325 374 7,800  Level FlightAware ADS-B
Fri 02:02:03 AM 42.5100 -70.9410 81° East 323 372 7,800  Level FlightAware ADS-B
Fri 02:02:13 AM 42.5120 -70.9260 80° East 323 372 7,800  Level FlightAware ADS-B
Fri 02:02:43 AM 42.5190 -70.8650 81° East 319 367 7,800  Level FlightAware ADS-B
Fri 02:03:08 AM 42.5240 -70.8170 82° East 319 367 7,800  Level FlightAware ADS-B
Fri 02:03:38 AM 42.5120 -70.7680 108° East 296 341 7,800  Level FlightAware ADS-B
Fri 02:04:08 AM 42.4830 -70.7170 128° Southeast 295 339 7,800  Level FlightAware ADS-B
Fri 02:04:33 AM 42.4640 -70.6840 128° Southeast 296 341 7,800  Level FlightAware ADS-B
Fri 02:05:03 AM 42.4400 -70.6420 128° Southeast 288 331 7,800 -133 Level FlightAware ADS-B
Fri 02:05:18 AM 42.4240 -70.6300 151° Southeast 267 307 7,700 -400 Descending FlightAware ADS-B
Fri 02:05:33 AM 42.4060 -70.6190 156° South 267 307 7,600 -450 Descending FlightAware ADS-B
Fri 02:05:58 AM 42.3760 -70.6020 157° South 265 305 7,400 -545 Descending FlightAware ADS-B
Fri 02:06:28 AM 42.3430 -70.5820 156° South 263 303 7,100 -545 Descending FlightAware ADS-B
Fri 02:06:53 AM 42.3130 -70.5640 156° South 262 302 6,900 -436 Descending FlightAware ADS-B
Fri 02:07:23 AM 42.2790 -70.5430 155° Southeast 268 308 6,700 -500 Descending FlightAware ADS-B
Fri 02:07:53 AM 42.2450 -70.5230 156° South 268 308 6,400 -545 Descending FlightAware ADS-B
Fri 02:08:18 AM 42.2170 -70.5060 156° South 264 304 6,200 -480 Descending FlightAware ADS-B
Fri 02:08:43 AM 42.1940 -70.4930 157° South 249 287 6,000 -257 Descending FlightAware ADS-B
Fri 02:09:28 AM 42.1450 -70.4610 154° Southeast 249 287 5,900 -80 Descending FlightAware ADS-B
Fri 02:11:08 AM 42.0770 -70.5420 221° Southwest 5,800 -57 Descending FlightAware ADS-B
Fri 02:11:13 AM 42.0750 -70.5460 236° Southwest 231 266 5,800  Level FlightAware ADS-B
Fri 02:11:38 AM 42.0660 -70.5780 249° West 231 266 5,800  Level FlightAware ADS-B
Fri 02:12:18 AM 42.0500 -70.6330 249° West 229 264 5,800  Level FlightAware ADS-B
Fri 02:12:23 AM 42.0470 -70.6420 246° West 229 264 5,800  Level FlightAware ADS-B

Login

Don't have an account? Register now (free) for customized features, flight alerts, and more!